Time;durP1;ratioP1;P1;durP2;ratioP2;P2;SDS_P1;SDS_P2;PMS_P1;PMS_P2;Temp;Humidity;BMP_temperature;BMP_pressure;BME280_temperature;BME280_humidity;BME280_pressure;Samples;Min_cycle;Max_cycle;Signal;HPM_P1;HPM_P2
2023/04/08 00:02:06;;;;;;;12.27;10.98;;;8.00;99.90;;;;;;5046970;28;20591;-79
2023/04/08 00:04:55;;;;;;;14.45;11.40;;;8.10;99.90;;;;;;5008682;28;20272;-76
2023/04/08 00:07:44;;;;;;;13.00;11.27;;;8.20;99.90;;;;;;5018933;28;20708;-79
2023/04/08 00:10:33;;;;;;;13.57;10.98;;;8.20;99.90;;;;;;5028565;28;20232;-80
2023/04/08 00:13:23;;;;;;;12.38;10.38;;;8.20;99.90;;;;;;5014420;28;20363;-79
2023/04/08 00:16:12;;;;;;;13.43;11.27;;;8.10;99.90;;;;;;5027088;28;20239;-78
2023/04/08 00:19:01;;;;;;;12.90;10.93;;;8.10;99.90;;;;;;5018312;28;20700;-80
2023/04/08 00:21:50;;;;;;;12.27;10.90;;;8.10;99.90;;;;;;5039980;28;20290;-82
2023/04/08 00:24:39;;;;;;;15.10;11.37;;;8.10;99.90;;;;;;5028606;28;20573;-81
2023/04/08 00:27:28;;;;;;;12.55;10.43;;;8.00;99.90;;;;;;5019448;28;20225;-79
2023/04/08 00:30:18;;;;;;;14.03;11.23;;;8.10;99.90;;;;;;5035183;28;20274;-81
2023/04/08 00:33:07;;;;;;;11.93;10.37;;;8.00;99.90;;;;;;5040326;28;20949;-81
2023/04/08 00:35:57;;;;;;;14.67;11.07;;;8.00;99.90;;;;;;5012185;28;20298;-80
2023/04/08 00:38:45;;;;;;;12.90;10.20;;;8.10;99.90;;;;;;5039208;28;20224;-78
2023/04/08 00:41:35;;;;;;;12.57;10.73;;;8.10;99.90;;;;;;5019971;28;20221;-77
2023/04/08 00:44:24;;;;;;;12.93;11.30;;;8.00;99.90;;;;;;5044633;28;20382;-77
2023/04/08 00:47:15;;;;;;;13.82;10.80;;;8.10;99.90;;;;;;5028647;28;20229;-78
2023/04/08 00:50:04;;;;;;;12.57;10.60;;;8.20;99.90;;;;;;5034029;28;20308;-78
2023/04/08 00:52:53;;;;;;;13.75;10.98;;;8.20;99.90;;;;;;5036424;28;20225;-77
2023/04/08 00:55:42;;;;;;;14.38;11.15;;;8.20;99.90;;;;;;5048320;28;20229;-77
2023/04/08 00:58:31;;;;;;;13.35;10.52;;;8.20;99.90;;;;;;5022745;28;20546;-78
2023/04/08 01:01:26;;;;;;;13.23;10.97;;;8.20;99.90;;;;;;5038811;28;20677;-78
2023/04/08 01:04:26;;;;;;;12.27;10.90;;;8.10;99.90;;;;;;5041186;28;20220;-78
2023/04/08 01:07:18;;;;;;;13.13;10.80;;;8.00;99.90;;;;;;5038760;28;20259;-77
2023/04/08 01:10:15;;;;;;;13.20;10.33;;;8.00;99.90;;;;;;5040528;28;20220;-78
2023/04/08 01:13:07;;;;;;;12.47;10.37;;;7.90;99.90;;;;;;5028364;28;20223;-77
2023/04/08 01:15:56;;;;;;;13.00;10.70;;;7.90;99.90;;;;;;5037648;28;20235;-77
2023/04/08 01:18:46;;;;;;;12.47;10.70;;;7.80;99.90;;;;;;5041115;28;20947;-80
2023/04/08 01:21:38;;;;;;;13.80;10.95;;;7.80;99.90;;;;;;5041217;28;20433;-77
2023/04/08 01:24:30;;;;;;;12.60;10.67;;;7.90;99.90;;;;;;5041093;28;20236;-78
2023/04/08 01:27:21;;;;;;;15.97;11.53;;;7.80;99.90;;;;;;5039721;28;20252;-78
2023/04/08 01:30:10;;;;;;;12.93;10.67;;;7.70;99.90;;;;;;5043760;28;20345;-79
2023/04/08 01:33:02;;;;;;;15.87;12.40;;;7.70;99.90;;;;;;5034920;28;21062;-79
2023/04/08 01:35:52;;;;;;;14.53;11.57;;;7.70;99.90;;;;;;5041580;28;20220;-79
2023/04/08 01:38:42;;;;;;;14.20;12.00;;;7.70;99.90;;;;;;5026822;28;20233;-79
2023/04/08 01:41:32;;;;;;;14.67;12.00;;;7.80;99.90;;;;;;5019843;28;20243;-81
2023/04/08 01:44:22;;;;;;;14.07;12.57;;;7.80;99.90;;;;;;5019860;28;20814;-77
2023/04/08 01:47:14;;;;;;;14.53;11.73;;;7.70;99.90;;;;;;5017986;28;20232;-75
2023/04/08 01:50:06;;;;;;;14.50;12.50;;;7.70;99.90;;;;;;5025406;28;20220;-77
2023/04/08 01:52:57;;;;;;;15.37;12.90;;;7.60;99.90;;;;;;5043109;28;20235;-82
2023/04/08 01:55:46;;;;;;;16.53;13.10;;;7.60;99.90;;;;;;5019348;28;20326;-82
2023/04/08 01:58:40;;;;;;;15.40;12.90;;;7.60;99.90;;;;;;5040702;28;20224;-84
2023/04/08 02:01:32;;;;;;;15.53;13.20;;;7.70;99.90;;;;;;5045585;28;20368;-80
2023/04/08 02:04:21;;;;;;;17.30;12.80;;;7.60;99.90;;;;;;5040410;28;20241;-81
2023/04/08 02:07:15;;;;;;;17.00;13.80;;;7.50;99.90;;;;;;5022866;28;20345;-81
2023/04/08 02:10:05;;;;;;;18.73;15.50;;;7.50;99.90;;;;;;5034872;28;20357;-80
2023/04/08 02:12:54;;;;;;;17.63;14.70;;;7.50;99.90;;;;;;5043072;28;20242;-80
2023/04/08 02:15:47;;;;;;;18.30;14.83;;;7.60;99.90;;;;;;5040790;28;20230;-79
2023/04/08 02:18:41;;;;;;;19.30;14.50;;;7.60;99.90;;;;;;5008653;28;20719;-83
2023/04/08 02:21:41;;;;;;;16.43;13.47;;;7.50;99.90;;;;;;5029295;28;20333;-80
2023/04/08 02:24:32;;;;;;;16.57;13.70;;;7.60;99.90;;;;;;5025450;28;20220;-80
2023/04/08 02:27:22;;;;;;;16.47;13.10;;;7.60;99.90;;;;;;5035007;28;20237;-81
2023/04/08 02:30:14;;;;;;;15.90;12.83;;;7.60;99.90;;;;;;5040686;28;20252;-82
2023/04/08 02:33:05;;;;;;;16.87;14.23;;;7.40;99.90;;;;;;5031137;28;20704;-81
2023/04/08 02:35:58;;;;;;;16.67;13.50;;;7.30;99.90;;;;;;5019865;28;20271;-80
2023/04/08 02:38:48;;;;;;;15.47;13.10;;;7.30;99.90;;;;;;5019896;28;20589;-80
2023/04/08 02:41:38;;;;;;;15.47;12.50;;;7.40;99.90;;;;;;5027264;28;21007;-80
2023/04/08 02:44:26;;;;;;;14.90;12.70;;;7.30;99.90;;;;;;5016141;28;20240;-81
2023/04/08 02:47:15;;;;;;;16.17;12.50;;;7.30;99.90;;;;;;5024622;28;20225;-80
2023/04/08 02:50:05;;;;;;;15.07;12.37;;;7.40;99.90;;;;;;5016898;28;20220;-80
2023/04/08 02:52:56;;;;;;;15.00;12.13;;;7.10;99.90;;;;;;5049404;28;20347;-79
2023/04/08 02:55:45;;;;;;;13.73;11.50;;;7.20;99.90;;;;;;5042044;28;20825;-79
2023/04/08 02:58:34;;;;;;;14.80;11.67;;;7.20;99.90;;;;;;5030036;28;20237;-79
2023/04/08 03:01:22;;;;;;;16.83;12.40;;;7.20;99.90;;;;;;5040626;28;20236;-81
2023/04/08 03:04:11;;;;;;;14.80;11.90;;;7.10;99.90;;;;;;5030342;28;20307;-81
2023/04/08 03:07:00;;;;;;;15.47;12.13;;;7.10;99.90;;;;;;5046528;28;20765;-81
2023/04/08 03:09:51;;;;;;;14.57;11.43;;;6.70;99.90;;;;;;5036084;28;20225;-81
2023/04/08 03:12:40;;;;;;;14.63;11.67;;;6.80;99.90;;;;;;5044835;28;20234;-79
2023/04/08 03:15:28;;;;;;;16.50;11.97;;;6.90;99.90;;;;;;5048721;28;20225;-78
2023/04/08 03:18:17;;;;;;;14.17;11.07;;;6.90;99.90;;;;;;5041253;28;20300;-79
2023/04/08 03:21:06;;;;;;;15.13;12.03;;;6.80;99.90;;;;;;5046566;28;20247;-76
2023/04/08 03:23:55;;;;;;;14.47;11.20;;;7.00;99.90;;;;;;5043410;28;20234;-78
2023/04/08 03:26:45;;;;;;;16.87;12.40;;;6.90;99.90;;;;;;5040959;28;20766;-79
2023/04/08 03:29:34;;;;;;;14.90;11.53;;;6.90;99.90;;;;;;5040461;28;20221;-80
2023/04/08 03:32:23;;;;;;;15.40;11.70;;;6.80;99.90;;;;;;5020085;28;20324;-78
2023/04/08 03:35:12;;;;;;;14.40;11.37;;;6.70;99.90;;;;;;5023464;28;20227;-78
2023/04/08 03:38:01;;;;;;;13.90;11.13;;;6.70;99.90;;;;;;5023914;28;20246;-79
2023/04/08 03:40:49;;;;;;;15.60;11.60;;;6.70;99.90;;;;;;5029913;28;20233;-82
2023/04/08 03:43:40;;;;;;;14.03;11.33;;;6.80;99.90;;;;;;5020354;28;20235;-82
2023/04/08 03:46:28;;;;;;;13.87;11.40;;;6.60;99.90;;;;;;5033427;28;20636;-82
2023/04/08 03:49:18;;;;;;;14.93;11.53;;;6.60;99.90;;;;;;5042684;28;20226;-82
2023/04/08 03:52:07;;;;;;;15.07;11.10;;;6.60;99.90;;;;;;5046059;28;20320;-80
2023/04/08 03:54:55;;;;;;;14.90;11.63;;;6.50;99.90;;;;;;5039349;28;20715;-83
2023/04/08 03:57:45;;;;;;;14.80;11.50;;;6.40;99.90;;;;;;5030819;28;20238;-84
2023/04/08 04:00:36;;;;;;;15.30;11.63;;;6.20;99.90;;;;;;5023958;28;20234;-80
2023/04/08 04:03:24;;;;;;;14.40;11.60;;;6.10;99.90;;;;;;5039402;28;20738;-78
2023/04/08 04:06:14;;;;;;;15.27;11.87;;;6.30;99.90;;;;;;5036231;28;20221;-79
2023/04/08 04:09:03;;;;;;;16.57;11.73;;;6.50;99.90;;;;;;5034524;28;20371;-79
2023/04/08 04:11:51;;;;;;;16.83;12.13;;;6.40;99.90;;;;;;5025942;28;20225;-80
2023/04/08 04:14:40;;;;;;;16.73;12.07;;;6.30;99.90;;;;;;5019650;28;20303;-79
2023/04/08 04:17:31;;;;;;;18.13;12.53;;;6.10;99.90;;;;;;5042175;28;20240;-79
2023/04/08 04:20:20;;;;;;;17.37;13.07;;;6.20;99.90;;;;;;5042992;28;20225;-81
2023/04/08 04:23:09;;;;;;;17.93;12.20;;;6.20;99.90;;;;;;5024873;28;20696;-80
2023/04/08 04:25:58;;;;;;;16.43;12.43;;;6.30;99.90;;;;;;5027831;28;20329;-83
2023/04/08 04:28:47;;;;;;;17.20;12.63;;;6.20;99.90;;;;;;5019451;28;20229;-82
2023/04/08 04:31:37;;;;;;;17.07;12.60;;;6.10;99.90;;;;;;5039365;28;20716;-81
2023/04/08 04:34:27;;;;;;;17.80;13.00;;;6.00;99.90;;;;;;5029464;28;20777;-82
2023/04/08 04:37:16;;;;;;;15.87;12.40;;;6.20;99.90;;;;;;5042897;28;20248;-81
2023/04/08 04:40:06;;;;;;;15.53;11.50;;;6.20;99.90;;;;;;5043400;28;20649;-81
2023/04/08 04:42:55;;;;;;;18.73;12.20;;;6.00;99.90;;;;;;5038513;28;20259;-81
2023/04/08 04:45:44;;;;;;;15.43;11.50;;;6.30;99.90;;;;;;5002658;28;20226;-80
2023/04/08 04:48:33;;;;;;;15.77;11.70;;;6.30;99.90;;;;;;5019106;28;20455;-79
2023/04/08 04:51:23;;;;;;;16.67;12.90;;;6.30;99.90;;;;;;5026459;28;20611;-81
2023/04/08 04:54:12;;;;;;;19.43;12.87;;;6.40;99.90;;;;;;5031413;28;20312;-81
2023/04/08 04:57:01;;;;;;;15.90;12.20;;;6.50;99.90;;;;;;5037714;28;20236;-81
2023/04/08 04:59:53;;;;;;;17.57;12.57;;;6.60;99.90;;;;;;5039837;28;20373;-87
2023/04/08 05:02:42;;;;;;;15.90;11.63;;;6.30;99.90;;;;;;5039810;28;20288;-83
2023/04/08 05:05:32;;;;;;;15.30;11.53;;;6.40;99.90;;;;;;5042650;28;20223;-79
2023/04/08 05:08:22;;;;;;;15.97;11.47;;;6.60;99.90;;;;;;5024486;28;20228;-78
2023/04/08 05:11:15;;;;;;;16.47;12.23;;;6.50;99.90;;;;;;5042531;28;20264;-80
2023/04/08 05:14:04;;;;;;;15.23;11.67;;;6.30;99.90;;;;;;5040174;28;20710;-74
2023/04/08 05:16:53;;;;;;;16.40;12.03;;;6.30;99.90;;;;;;5025909;28;20953;-79
2023/04/08 05:19:42;;;;;;;14.50;11.93;;;6.60;99.90;;;;;;5023745;28;20244;-79
2023/04/08 05:22:31;;;;;;;14.30;11.50;;;6.60;99.90;;;;;;5033706;28;20232;-76
2023/04/08 05:25:21;;;;;;;16.87;12.00;;;6.40;99.90;;;;;;5017621;28;20225;-74
2023/04/08 05:28:11;;;;;;;14.50;11.20;;;6.20;99.90;;;;;;5003983;28;20590;-76
2023/04/08 05:30:59;;;;;;;15.80;11.40;;;6.20;99.90;;;;;;5031439;28;20852;-76
2023/04/08 05:33:48;;;;;;;15.43;11.37;;;6.30;99.90;;;;;;5042771;28;20226;-73
2023/04/08 05:36:37;;;;;;;14.53;11.37;;;6.30;99.90;;;;;;5037041;28;20306;-77
2023/04/08 05:39:26;;;;;;;15.27;11.40;;;6.50;99.90;;;;;;5032925;28;20230;-74
2023/04/08 05:42:16;;;;;;;13.53;10.73;;;6.40;99.90;;;;;;5035451;28;20907;-80
2023/04/08 05:45:06;;;;;;;14.43;11.20;;;6.70;99.90;;;;;;5034759;28;20771;-81
2023/04/08 05:47:55;;;;;;;13.90;10.90;;;6.80;99.90;;;;;;5042585;28;20227;-77
2023/04/08 05:50:45;;;;;;;16.37;11.80;;;6.90;99.90;;;;;;5030470;28;21006;-79
2023/04/08 05:53:35;;;;;;;16.10;11.47;;;6.90;99.90;;;;;;5040888;28;20276;-70
2023/04/08 05:56:24;;;;;;;14.17;11.60;;;6.90;99.90;;;;;;5029065;28;20231;-69
2023/04/08 05:59:14;;;;;;;16.37;11.90;;;6.90;99.90;;;;;;5012872;28;20227;-72
2023/04/08 06:02:03;;;;;;;15.83;12.20;;;7.20;99.90;;;;;;5029125;28;20574;-69
2023/04/08 06:04:52;;;;;;;14.97;11.93;;;6.90;99.90;;;;;;5024469;28;20290;-69
2023/04/08 06:07:41;;;;;;;17.70;12.13;;;7.10;99.90;;;;;;5031574;28;20231;-74
2023/04/08 06:10:31;;;;;;;16.43;13.17;;;7.20;99.90;;;;;;5038657;28;20228;-74
2023/04/08 06:13:20;;;;;;;16.37;12.77;;;7.20;99.90;;;;;;5040124;28;20248;-75
2023/04/08 06:16:15;;;;;;;18.00;13.40;;;7.40;99.90;;;;;;5042717;28;20310;-74
2023/04/08 06:19:08;;;;;;;16.67;13.00;;;7.50;99.90;;;;;;5037836;28;20231;-74
2023/04/08 06:21:59;;;;;;;14.93;11.87;;;8.00;99.90;;;;;;5019858;28;20234;-73
2023/04/08 06:24:48;;;;;;;19.73;13.30;;;8.30;99.90;;;;;;5004929;28;20240;-71
2023/04/08 06:27:37;;;;;;;17.55;13.68;;;8.70;99.90;;;;;;5029928;28;20244;-73
2023/04/08 06:30:26;;;;;;;15.57;12.50;;;8.50;99.90;;;;;;5023548;28;20296;-73
2023/04/08 06:33:16;;;;;;;15.60;12.87;;;8.60;99.90;;;;;;5042529;28;20224;-72
2023/04/08 06:39:09;;;;;;;13.73;11.60;;;8.50;99.90;;;;;;5050882;28;20224;-75
2023/04/08 06:41:58;;;;;;;13.50;11.30;;;8.10;99.90;;;;;;5045766;28;20300;-73
2023/04/08 06:44:57;;;;;;;15.27;11.83;;;8.60;99.90;;;;;;5026423;28;20224;-75
2023/04/08 06:47:46;;;;;;;17.00;11.63;;;8.70;99.90;;;;;;5033543;28;20608;-72
2023/04/08 06:50:36;;;;;;;16.40;10.65;;;8.50;99.90;;;;;;5046135;28;20248;-75
2023/04/08 06:53:25;;;;;;;13.30;10.23;;;8.50;99.90;;;;;;5037861;28;20969;-75
2023/04/08 06:56:14;;;;;;;13.27;10.67;;;8.80;99.90;;;;;;5045177;28;20235;-75
2023/04/08 06:59:03;;;;;;;13.02;10.18;;;9.10;99.90;;;;;;5040210;28;20227;-73
2023/04/08 07:01:53;;;;;;;10.90;9.38;;;9.20;99.90;;;;;;5014390;28;20317;-74
2023/04/08 07:04:42;;;;;;;13.98;10.07;;;10.00;99.90;;;;;;5016931;28;20751;-74
2023/04/08 07:07:36;;;;;;;11.98;9.63;;;10.30;99.90;;;;;;5019441;28;20224;-74
2023/04/08 07:10:25;;;;;;;11.63;8.82;;;11.00;99.90;;;;;;5041065;28;20228;-74
2023/04/08 07:13:13;;;;;;;11.30;8.95;;;11.20;99.90;;;;;;5043489;28;20639;-75
2023/04/08 07:16:02;;;;;;;12.65;9.13;;;11.90;99.90;;;;;;5035474;28;20229;-76
2023/04/08 07:18:51;;;;;;;9.35;8.27;;;12.30;99.90;;;;;;5016928;28;20245;-74
2023/04/08 07:21:40;;;;;;;10.73;7.65;;;12.30;99.90;;;;;;5034666;28;20261;-74
2023/04/08 07:24:30;;;;;;;9.15;8.05;;;12.10;99.90;;;;;;5031624;28;20303;-74
2023/04/08 07:27:20;;;;;;;10.20;8.13;;;12.60;99.90;;;;;;5019554;28;20382;-73
2023/04/08 07:30:09;;;;;;;9.52;8.07;;;12.70;99.90;;;;;;5040075;28;20237;-73
2023/04/08 07:32:58;;;;;;;10.20;7.50;;;12.80;99.90;;;;;;5044034;28;20233;-74
2023/04/08 07:35:48;;;;;;;9.70;8.30;;;13.20;99.90;;;;;;5026525;28;20482;-74
2023/04/08 07:38:37;;;;;;;8.75;7.47;;;13.60;99.90;;;;;;5022383;28;20229;-73
2023/04/08 07:41:28;;;;;;;10.10;8.27;;;13.70;99.90;;;;;;5021336;28;20241;-73
2023/04/08 07:44:18;;;;;;;9.32;7.97;;;13.90;99.90;;;;;;5038876;28;20245;-73
2023/04/08 07:47:07;;;;;;;9.48;7.75;;;14.10;99.90;;;;;;5032382;28;20578;-72
2023/04/08 07:49:57;;;;;;;10.18;8.00;;;14.00;99.90;;;;;;5021869;28;20307;-71
2023/04/08 07:52:45;;;;;;;9.27;8.27;;;14.40;99.90;;;;;;5041107;28;20244;-71
2023/04/08 07:55:34;;;;;;;11.70;9.20;;;14.60;99.90;;;;;;5026735;28;20816;-70
2023/04/08 07:58:25;;;;;;;13.02;9.20;;;14.90;99.90;;;;;;5032913;28;20232;-72
2023/04/08 08:01:18;;;;;;;13.55;9.20;;;14.90;99.90;;;;;;5038189;28;20250;-73
2023/04/08 08:04:07;;;;;;;14.70;9.20;;;14.40;99.90;;;;;;5017758;28;20222;-72
2023/04/08 08:06:59;;;;;;;11.25;8.75;;;14.40;99.90;;;;;;5015335;28;20229;-71
2023/04/08 08:09:48;;;;;;;9.63;8.63;;;15.10;99.90;;;;;;5028739;28;20241;-72
2023/04/08 08:12:37;;;;;;;9.43;8.23;;;14.80;99.90;;;;;;5029861;28;20308;-73
2023/04/08 08:15:27;;;;;;;11.20;7.90;;;14.80;99.90;;;;;;5040475;28;20221;-71
2023/04/08 08:18:16;;;;;;;8.88;7.82;;;15.20;99.90;;;;;;5022980;28;20234;-72
2023/04/08 08:21:05;;;;;;;11.15;9.52;;;15.90;99.90;;;;;;5030544;28;20226;-72
2023/04/08 08:23:55;;;;;;;9.93;8.60;;;16.40;99.90;;;;;;5032596;28;20954;-71
2023/04/08 08:26:46;;;;;;;9.48;8.48;;;16.50;99.90;;;;;;5036738;28;20229;-71
2023/04/08 08:29:35;;;;;;;9.15;8.20;;;16.60;99.90;;;;;;5022583;28;20611;-72
2023/04/08 08:32:26;;;;;;;10.25;8.63;;;16.50;99.90;;;;;;5033999;28;20233;-71
2023/04/08 08:35:14;;;;;;;10.82;8.50;;;16.20;99.90;;;;;;5043767;28;20312;-71
2023/04/08 08:38:03;;;;;;;8.90;7.97;;;17.00;99.90;;;;;;5044447;28;20334;-74
2023/04/08 08:40:55;;;;;;;8.88;7.97;;;16.30;99.90;;;;;;5041910;28;20228;-73
2023/04/08 08:43:44;;;;;;;10.00;8.45;;;16.50;99.90;;;;;;5042830;28;20240;-74
2023/04/08 08:46:34;;;;;;;8.70;7.90;;;16.40;99.90;;;;;;5026822;28;20401;-72
2023/04/08 08:49:24;;;;;;;9.20;8.20;;;16.90;99.90;;;;;;5041784;28;20225;-73
2023/04/08 08:52:16;;;;;;;8.48;7.57;;;17.20;99.90;;;;;;5028560;28;20213;-72
2023/04/08 08:55:06;;;;;;;8.73;7.80;;;17.00;99.90;;;;;;5025109;28;20593;-72
2023/04/08 08:58:15;;;;;;;9.85;8.57;;;17.80;99.90;;;;;;5020427;28;20222;-72
2023/04/08 09:01:24;;;;;;;9.15;8.25;;;16.30;99.90;;;;;;5028123;28;20910;-72
2023/04/08 09:04:15;;;;;;;9.10;8.18;;;15.70;99.90;;;;;;5036310;28;20224;-71
2023/04/08 09:07:15;;;;;;;10.00;7.95;;;17.00;99.90;;;;;;5041625;28;20272;-72
2023/04/08 09:10:05;;;;;;;8.60;7.32;;;17.60;99.90;;;;;;5036164;28;20304;-71
2023/04/08 09:12:55;;;;;;;7.93;7.13;;;17.30;99.90;;;;;;5044763;28;20231;-72
2023/04/08 09:16:02;;;;;;;8.55;7.65;;;17.70;99.90;;;;;;5035631;28;20225;-73
2023/04/08 09:18:51;;;;;;;10.50;8.82;;;17.20;99.90;;;;;;5017056;28;20260;-72
2023/04/08 09:21:40;;;;;;;10.98;8.68;;;16.80;99.90;;;;;;5035138;28;20241;-72
2023/04/08 09:24:31;;;;;;;9.98;8.80;;;15.50;99.90;;;;;;5025063;28;20500;-71
2023/04/08 09:27:34;;;;;;;9.07;8.18;;;14.40;99.90;;;;;;5036377;28;20232;-72
2023/04/08 09:30:24;;;;;;;9.27;7.95;;;13.90;99.90;;;;;;5024991;28;20244;-68
2023/04/08 09:33:13;;;;;;;9.57;8.48;;;14.10;99.90;;;;;;5020988;28;20758;-74
2023/04/08 09:36:02;;;;;;;9.68;8.57;;;14.00;99.90;;;;;;5025834;28;20335;-75
2023/04/08 09:38:52;;;;;;;9.68;8.00;;;13.90;99.90;;;;;;5042498;28;20616;-71
2023/04/08 09:41:43;;;;;;;10.45;8.48;;;13.70;99.90;;;;;;5031214;28;20247;-71
2023/04/08 09:44:35;;;;;;;9.68;8.68;;;13.90;99.90;;;;;;5031322;28;20240;-71
2023/04/08 09:47:28;;;;;;;9.18;8.20;;;14.20;99.90;;;;;;5027021;28;20250;-72
2023/04/08 09:50:20;;;;;;;9.13;7.85;;;14.00;99.90;;;;;;5022256;28;20231;-71
2023/04/08 09:53:14;;;;;;;8.45;7.55;;;13.60;99.90;;;;;;5026445;28;20694;-73
2023/04/08 09:56:10;;;;;;;9.35;8.25;;;13.70;99.90;;;;;;5034319;28;20597;-72
2023/04/08 09:59:09;;;;;;;11.15;8.65;;;14.00;99.90;;;;;;5041042;28;20219;-72
2023/04/08 10:02:01;;;;;;;8.48;7.57;;;14.40;99.90;;;;;;5029897;28;20216;-72
2023/04/08 10:04:52;;;;;;;8.48;7.68;;;14.10;99.90;;;;;;5040722;28;20221;-72
2023/04/08 10:07:42;;;;;;;9.60;7.97;;;13.70;99.90;;;;;;5030131;28;20268;-74
2023/04/08 10:10:31;;;;;;;8.43;7.50;;;13.80;99.90;;;;;;5007697;28;20775;-72
2023/04/08 10:13:20;;;;;;;9.63;8.63;;;13.80;99.90;;;;;;5029644;28;20251;-72
2023/04/08 10:16:23;;;;;;;9.18;8.07;;;13.90;99.90;;;;;;5034876;28;20225;-72
2023/04/08 10:19:37;;;;;;;9.07;7.93;;;13.80;99.90;;;;;;5025397;28;20308;-71
2023/04/08 10:22:48;;;;;;;10.88;8.57;;;13.90;99.90;;;;;;5031143;28;20294;-71
2023/04/08 10:25:39;;;;;;;8.63;7.72;;;13.80;99.90;;;;;;5028626;28;20220;-71
2023/04/08 10:28:28;;;;;;;8.35;7.18;;;13.70;99.90;;;;;;5032646;28;20756;-72
2023/04/08 10:31:22;;;;;;;7.95;7.07;;;13.60;99.90;;;;;;5027252;28;20221;-73
2023/04/08 10:34:17;;;;;;;8.48;7.57;;;13.50;99.90;;;;;;5033796;28;20233;-72
2023/04/08 10:37:07;;;;;;;9.18;7.60;;;13.60;99.90;;;;;;5023665;28;20313;-72
2023/04/08 10:39:57;;;;;;;8.00;7.20;;;13.50;99.90;;;;;;5038249;28;20271;-72
2023/04/08 10:42:46;;;;;;;8.18;7.22;;;13.40;99.90;;;;;;5038021;28;20240;-72
2023/04/08 10:45:35;;;;;;;7.97;6.70;;;13.60;99.90;;;;;;5044519;28;20228;-72
2023/04/08 10:48:27;;;;;;;8.65;7.57;;;13.50;99.90;;;;;;5043946;28;20243;-72
2023/04/08 10:51:16;;;;;;;7.68;6.85;;;14.00;99.90;;;;;;5043538;28;20236;-72
2023/04/08 10:54:09;;;;;;;7.18;6.47;;;14.10;99.90;;;;;;5038099;28;20311;-72
2023/04/08 10:56:58;;;;;;;8.27;6.70;;;14.00;99.90;;;;;;5040088;28;20229;-73
2023/04/08 10:59:47;;;;;;;6.93;6.22;;;13.70;99.90;;;;;;5042712;28;20225;-70
2023/04/08 11:02:38;;;;;;;7.10;6.07;;;13.60;99.90;;;;;;5018918;28;20228;-69
2023/04/08 11:05:29;;;;;;;6.95;6.25;;;13.50;99.90;;;;;;5045964;28;20224;-71
2023/04/08 11:08:19;;;;;;;8.18;6.75;;;13.40;99.90;;;;;;5039760;28;20217;-71
2023/04/08 11:11:09;;;;;;;7.63;6.63;;;13.40;99.90;;;;;;5037288;28;20232;-71
2023/04/08 11:13:58;;;;;;;6.97;6.28;;;13.60;99.90;;;;;;5042605;28;20301;-71
2023/04/08 11:16:47;;;;;;;6.82;6.13;;;13.70;99.90;;;;;;5034539;28;20278;-72
2023/04/08 11:19:38;;;;;;;7.07;5.85;;;13.70;99.90;;;;;;5035259;28;20217;-71
2023/04/08 11:22:29;;;;;;;6.80;6.10;;;13.90;99.90;;;;;;5027203;28;20241;-72
2023/04/08 11:25:18;;;;;;;8.45;6.18;;;14.00;99.90;;;;;;5013350;28;20777;-73
2023/04/08 11:28:07;;;;;;;9.10;6.70;;;14.30;99.90;;;;;;5030744;28;20702;-73
2023/04/08 11:30:58;;;;;;;6.82;6.13;;;14.30;99.90;;;;;;5037802;28;20729;-73
2023/04/08 11:33:48;;;;;;;6.95;6.07;;;14.40;99.90;;;;;;5043998;28;20235;-72
2023/04/08 11:36:40;;;;;;;7.20;6.05;;;14.60;99.90;;;;;;5023665;28;20274;-72
2023/04/08 11:39:30;;;;;;;7.70;6.45;;;14.40;99.90;;;;;;5043904;28;20256;-72
2023/04/08 11:42:29;;;;;;;6.10;5.50;;;14.40;99.90;;;;;;5027025;28;20236;-73
2023/04/08 11:45:20;;;;;;;6.65;5.85;;;14.60;99.90;;;;;;5029361;28;20222;-72
2023/04/08 11:48:10;;;;;;;7.22;5.95;;;14.20;99.90;;;;;;5035067;28;20235;-73
2023/04/08 11:51:04;;;;;;;6.03;5.43;;;14.20;99.90;;;;;;5028147;28;20751;-72
2023/04/08 11:53:53;;;;;;;5.90;5.30;;;14.30;99.90;;;;;;5037108;28;20231;-72
2023/04/08 11:56:49;;;;;;;6.15;5.55;;;14.40;99.90;;;;;;5036882;28;20767;-72
2023/04/08 11:59:38;;;;;;;5.95;5.32;;;14.60;99.90;;;;;;5030342;28;20229;-73
2023/04/08 12:02:27;;;;;;;5.55;4.93;;;14.30;99.90;;;;;;5030827;28;20229;-72
2023/04/08 12:05:17;;;;;;;5.85;5.28;;;14.40;99.90;;;;;;5028065;28;20232;-72
2023/04/08 12:08:05;;;;;;;6.97;5.60;;;14.40;99.90;;;;;;5015071;28;20281;-74
2023/04/08 12:10:54;;;;;;;5.85;5.25;;;14.40;99.90;;;;;;5023604;28;20237;-72
2023/04/08 12:13:52;;;;;;;5.63;5.13;;;14.20;99.90;;;;;;5048560;28;20224;-72
2023/04/08 12:16:41;;;;;;;5.20;4.70;;;14.30;99.90;;;;;;5036727;28;20221;-72
2023/04/08 12:19:31;;;;;;;5.50;5.00;;;14.40;99.90;;;;;;5047201;28;20213;-73
2023/04/08 12:22:22;;;;;;;5.93;4.90;;;14.40;99.90;;;;;;5033993;28;20248;-72
2023/04/08 12:25:12;;;;;;;6.88;4.93;;;14.50;99.90;;;;;;5034748;28;20232;-72
2023/04/08 12:28:01;;;;;;;5.20;4.70;;;14.40;99.90;;;;;;5026901;28;20233;-72
2023/04/08 12:30:51;;;;;;;5.60;5.07;;;14.30;99.90;;;;;;5036010;28;20233;-71
2023/04/08 12:33:40;;;;;;;7.78;5.50;;;14.40;99.90;;;;;;5033457;28;20221;-71
2023/04/08 12:36:28;;;;;;;5.55;4.93;;;14.10;99.90;;;;;;5042717;28;20228;-73
2023/04/08 12:39:17;;;;;;;5.53;5.03;;;14.20;99.90;;;;;;5039032;28;20214;-70
2023/04/08 12:42:06;;;;;;;5.00;4.50;;;14.50;99.90;;;;;;5020559;28;20705;-70
2023/04/08 12:44:55;;;;;;;8.07;5.38;;;14.50;99.90;;;;;;5024506;28;20234;-71
2023/04/08 12:47:45;;;;;;;5.60;5.05;;;14.80;99.90;;;;;;5034934;28;20290;-72
2023/04/08 12:50:34;;;;;;;6.80;5.28;;;15.10;99.90;;;;;;5018808;28;20273;-74
2023/04/08 12:53:23;;;;;;;6.18;5.57;;;15.30;99.90;;;;;;5041869;28;20323;-73
2023/04/08 12:56:11;;;;;;;6.22;5.15;;;15.10;99.90;;;;;;5040142;28;20224;-72
2023/04/08 12:59:01;;;;;;;6.35;4.97;;;14.70;99.90;;;;;;5035301;28;20310;-73
2023/04/08 13:01:50;;;;;;;5.25;4.63;;;14.70;99.90;;;;;;5034259;28;20221;-73
2023/04/08 13:04:40;;;;;;;5.72;5.00;;;14.60;99.90;;;;;;5015105;28;20996;-72
2023/04/08 13:07:29;;;;;;;4.93;4.43;;;14.70;99.90;;;;;;5025965;28;20231;-72
2023/04/08 13:10:18;;;;;;;5.25;4.72;;;15.10;99.90;;;;;;5016495;28;20219;-73
2023/04/08 13:13:07;;;;;;;5.10;4.60;;;15.00;99.90;;;;;;5026048;28;20236;-74
2023/04/08 13:15:56;;;;;;;5.13;4.32;;;15.10;99.90;;;;;;5029230;28;20221;-73
2023/04/08 13:18:45;;;;;;;8.05;5.55;;;15.20;99.90;;;;;;5013964;28;20431;-73
2023/04/08 13:21:35;;;;;;;5.18;4.68;;;15.30;99.90;;;;;;5017781;28;20328;-73
2023/04/08 13:24:24;;;;;;;4.90;4.40;;;15.00;99.90;;;;;;5029754;28;20232;-73
2023/04/08 13:27:13;;;;;;;5.95;4.57;;;15.00;99.90;;;;;;5021010;28;20229;-72
2023/04/08 13:30:02;;;;;;;5.45;4.95;;;15.00;99.90;;;;;;5036099;28;20221;-72
2023/04/08 13:32:51;;;;;;;5.50;5.00;;;15.20;99.90;;;;;;5027368;28;20787;-73
2023/04/08 13:35:40;;;;;;;5.78;5.18;;;15.10;99.90;;;;;;5028252;28;20717;-72
2023/04/08 13:38:30;;;;;;;6.20;5.20;;;15.10;99.90;;;;;;5026545;28;20533;-72
2023/04/08 13:41:20;;;;;;;7.13;5.60;;;15.10;99.90;;;;;;5021557;28;20221;-74
2023/04/08 13:44:10;;;;;;;5.63;5.05;;;15.40;99.90;;;;;;5024937;28;20633;-72
2023/04/08 13:46:59;;;;;;;5.70;5.10;;;15.30;99.90;;;;;;5025943;28;20459;-72
2023/04/08 13:49:48;;;;;;;5.97;5.38;;;15.30;99.90;;;;;;5023131;28;20221;-72
2023/04/08 13:52:37;;;;;;;5.68;5.05;;;15.40;99.90;;;;;;5036107;28;20224;-73
2023/04/08 13:55:27;;;;;;;5.75;5.15;;;15.30;99.90;;;;;;5031148;28;20245;-72
2023/04/08 13:58:17;;;;;;;6.55;5.15;;;15.10;99.90;;;;;;5023236;28;20231;-72
2023/04/08 14:01:12;;;;;;;6.53;5.80;;;15.20;99.90;;;;;;5023044;28;20409;-72
2023/04/08 14:04:00;;;;;;;8.73;5.75;;;15.00;99.90;;;;;;5043619;28;20262;-73
2023/04/08 14:06:51;;;;;;;6.20;5.60;;;14.80;99.90;;;;;;5013324;28;20292;-72
2023/04/08 14:09:40;;;;;;;6.05;5.45;;;14.80;99.90;;;;;;5010973;28;20245;-73
2023/04/08 14:12:31;;;;;;;6.47;5.65;;;14.80;99.90;;;;;;5043112;28;20229;-73
2023/04/08 14:15:19;;;;;;;7.05;5.43;;;14.40;99.90;;;;;;5035773;28;20224;-73
2023/04/08 14:18:08;;;;;;;6.18;5.57;;;14.40;99.90;;;;;;5035725;28;20233;-73
2023/04/08 14:20:58;;;;;;;7.20;6.00;;;14.30;99.90;;;;;;5045647;28;20909;-72
2023/04/08 14:23:47;;;;;;;8.20;5.75;;;14.40;99.90;;;;;;5039127;28;20228;-73
2023/04/08 14:26:37;;;;;;;7.85;6.47;;;14.40;99.90;;;;;;5023240;28;20233;-74
2023/04/08 14:29:27;;;;;;;6.40;5.63;;;14.20;99.90;;;;;;5043091;28;20237;-74
2023/04/08 14:32:16;;;;;;;6.72;6.03;;;14.10;99.90;;;;;;5037009;28;20307;-73
2023/04/08 14:35:05;;;;;;;6.95;5.72;;;14.20;99.90;;;;;;5036194;28;20310;-74
2023/04/08 14:37:56;;;;;;;6.50;5.65;;;14.40;99.90;;;;;;5029780;28;20294;-73
2023/04/08 14:40:45;;;;;;;5.38;4.88;;;14.40;99.90;;;;;;5030511;28;20217;-72
2023/04/08 14:43:33;;;;;;;5.60;5.00;;;14.40;99.90;;;;;;5035476;28;20321;-73